Time;durP1;ratioP1;P1;durP2;ratioP2;P2;SDS_P1;SDS_P2;PMS_P1;PMS_P2;Temp;Humidity;BMP_temperature;BMP_pressure;BME280_temperature;BME280_humidity;BME280_pressure;Samples;Min_cycle;Max_cycle;Signal;HPM_P1;HPM_P2
2022/07/12 00:01:06;;;;;;;;;;;;;;;;;;5035840;28;19909;-30
2022/07/12 00:03:32;;;;;;;;;;;;;;;;;;5034605;28;20349;-30
2022/07/12 00:05:58;;;;;;;;;;;;;;;;;;5035415;28;19913;-30
2022/07/12 00:08:23;;;;;;;;;;;;;;;;;;5036005;28;19913;-30
2022/07/12 00:10:50;;;;;;;;;;;;;;;;;;5035726;28;19916;-30
2022/07/12 00:13:16;;;;;;;;;;;;;;;;;;5035570;28;19924;-30
2022/07/12 00:15:42;;;;;;;;;;;;;;;;;;5035635;28;19909;-30
2022/07/12 00:18:07;;;;;;;;;;;;;;;;;;5035558;28;19913;-30
2022/07/12 00:20:34;;;;;;;;;;;;;;;;;;5035867;28;19917;-29
2022/07/12 00:23:00;;;;;;;;;;;;;;;;;;5035368;28;20352;-30
2022/07/12 00:25:26;;;;;;;;;;;;;;;;;;5034554;28;19913;-30
2022/07/12 00:27:52;;;;;;;;;;;;;;;;;;5035442;28;20292;-30
2022/07/12 00:30:18;;;;;;;;;;;;;;;;;;5035427;28;19959;-30
2022/07/12 00:32:43;;;;;;;;;;;;;;;;;;5035275;28;19982;-29
2022/07/12 00:35:09;;;;;;;;;;;;;;;;;;5035362;28;19920;-30
2022/07/12 00:37:35;;;;;;;;;;;;;;;;;;5035314;28;19983;-30
2022/07/12 00:40:01;;;;;;;;;;;;;;;;;;5034373;28;19909;-30
2022/07/12 00:42:27;;;;;;;;;;;;;;;;;;5035308;28;19917;-30
2022/07/12 00:44:53;;;;;;;;;;;;;;;;;;5035244;28;19946;-30
2022/07/12 00:47:19;;;;;;;;;;;;;;;;;;5035237;28;19967;-30
2022/07/12 00:49:45;;;;;;;;;;;;;;;;;;5035196;28;19936;-30
2022/07/12 00:52:11;;;;;;;;;;;;;;;;;;5034150;28;20345;-30
2022/07/12 00:54:37;;;;;;;;;;;;;;;;;;5035120;28;19913;-32
2022/07/12 00:57:03;;;;;;;;;;;;;;;;;;5035148;28;19979;-30
2022/07/12 00:59:29;;;;;;;;;;;;;;;;;;5034129;28;19914;-30
2022/07/12 01:01:55;;;;;;;;;;;;;;;;;;5033966;28;19916;-30
2022/07/12 01:04:21;;;;;;;;;;;;;;;;;;5033894;28;19921;-29
2022/07/12 01:06:47;;;;;;;;;;;;;;;;;;5035299;28;19940;-29
2022/07/12 01:09:13;;;;;;;;;;;;;;;;;;5035000;28;19924;-30
2022/07/12 01:11:39;;;;;;;;;;;;;;;;;;5034971;28;19909;-29
2022/07/12 01:14:05;;;;;;;;;;;;;;;;;;5035112;28;19913;-30
2022/07/12 01:16:31;;;;;;;;;;;;;;;;;;5033953;28;19920;-30
2022/07/12 01:18:58;;;;;;;;;;;;;;;;;;5039074;28;19940;-30
2022/07/12 01:21:24;;;;;;;;;;;;;;;;;;5038916;28;20022;-30
2022/07/12 01:23:51;;;;;;;;;;;;;;;;;;5037803;28;20348;-30
2022/07/12 01:26:17;;;;;;;;;;;;;;;;;;5039092;28;20251;-30
2022/07/12 01:28:43;;;;;;;;;;;;;;;;;;5038740;28;20008;-30
2022/07/12 01:31:09;;;;;;;;;;;;;;;;;;5037773;28;19952;-30
2022/07/12 01:33:35;;;;;;;;;;;;;;;;;;5037610;28;19920;-30
2022/07/12 01:36:00;;;;;;;;;;;;;;;;;;5037746;28;19913;-29
2022/07/12 01:38:27;;;;;;;;;;;;;;;;;;5037651;28;19913;-30
2022/07/12 01:40:53;;;;;;;;;;;;;;;;;;5038565;28;19914;-29
2022/07/12 01:43:18;;;;;;;;;;;;;;;;;;5038317;28;19975;-30
2022/07/12 01:45:45;;;;;;;;;;;;;;;;;;5038720;28;19916;-29
2022/07/12 01:48:11;;;;;;;;;;;;;;;;;;5038613;28;19916;-30
2022/07/12 01:50:37;;;;;;;;;;;;;;;;;;5038348;28;20011;-30
2022/07/12 01:53:03;;;;;;;;;;;;;;;;;;5038238;28;19913;-30
2022/07/12 01:55:30;;;;;;;;;;;;;;;;;;5038274;28;19920;-30
2022/07/12 01:57:56;;;;;;;;;;;;;;;;;;5037255;28;19991;-30
2022/07/12 02:00:22;;;;;;;;;;;;;;;;;;5037224;28;20256;-30
2022/07/12 02:02:48;;;;;;;;;;;;;;;;;;5037751;28;20386;-30
2022/07/12 02:05:14;;;;;;;;;;;;;;;;;;5037096;28;20344;-30
2022/07/12 02:07:41;;;;;;;;;;;;;;;;;;5038310;28;19913;-30
2022/07/12 02:10:07;;;;;;;;;;;;;;;;;;5038053;28;19906;-30
2022/07/12 02:12:33;;;;;;;;;;;;;;;;;;5038156;28;19941;-30
2022/07/12 02:15:00;;;;;;;;;;;;;;;;;;5037929;28;19996;-29
2022/07/12 02:17:26;;;;;;;;;;;;;;;;;;5037920;28;19920;-30
2022/07/12 02:19:52;;;;;;;;;;;;;;;;;;5037787;28;20257;-29
2022/07/12 02:22:18;;;;;;;;;;;;;;;;;;5037719;28;19913;-30
2022/07/12 02:24:44;;;;;;;;;;;;;;;;;;5037957;28;19920;-29
2022/07/12 02:27:10;;;;;;;;;;;;;;;;;;5037713;28;19936;-30
2022/07/12 02:29:36;;;;;;;;;;;;;;;;;;5037165;28;19913;-30
2022/07/12 02:32:02;;;;;;;;;;;;;;;;;;5037830;28;19928;-30
2022/07/12 02:34:28;;;;;;;;;;;;;;;;;;5037562;28;19917;-30
2022/07/12 02:36:54;;;;;;;;;;;;;;;;;;5037482;28;19913;-30
2022/07/12 02:39:20;;;;;;;;;;;;;;;;;;5038029;28;19924;-30
2022/07/12 02:41:46;;;;;;;;;;;;;;;;;;5037271;28;19917;-31
2022/07/12 02:44:13;;;;;;;;;;;;;;;;;;5037369;28;19913;-30
2022/07/12 02:46:39;;;;;;;;;;;;;;;;;;5037353;28;19909;-30
2022/07/12 02:49:05;;;;;;;;;;;;;;;;;;5036298;28;19909;-30
2022/07/12 02:51:30;;;;;;;;;;;;;;;;;;5037268;28;19909;-30
2022/07/12 02:53:56;;;;;;;;;;;;;;;;;;5037078;28;19967;-30
2022/07/12 02:56:22;;;;;;;;;;;;;;;;;;5037401;28;19916;-29
2022/07/12 02:58:48;;;;;;;;;;;;;;;;;;5037079;28;19913;-30
2022/07/12 03:01:14;;;;;;;;;;;;;;;;;;5035996;28;19909;-30
2022/07/12 03:03:40;;;;;;;;;;;;;;;;;;5036725;28;19925;-30
2022/07/12 03:06:06;;;;;;;;;;;;;;;;;;5035973;28;19909;-29
2022/07/12 03:08:32;;;;;;;;;;;;;;;;;;5036951;28;19909;-29
2022/07/12 03:10:58;;;;;;;;;;;;;;;;;;5036829;28;19971;-30
2022/07/12 03:13:25;;;;;;;;;;;;;;;;;;5036755;28;20402;-30
2022/07/12 03:15:51;;;;;;;;;;;;;;;;;;5035865;28;19917;-29
2022/07/12 03:18:17;;;;;;;;;;;;;;;;;;5036676;28;19913;-29
2022/07/12 03:20:43;;;;;;;;;;;;;;;;;;5036992;28;20339;-29
2022/07/12 03:23:09;;;;;;;;;;;;;;;;;;5035517;28;19991;-29
2022/07/12 03:25:35;;;;;;;;;;;;;;;;;;5036857;28;19909;-30
2022/07/12 03:28:01;;;;;;;;;;;;;;;;;;5036510;28;19917;-30
2022/07/12 03:30:27;;;;;;;;;;;;;;;;;;5035577;28;19909;-30
2022/07/12 03:32:53;;;;;;;;;;;;;;;;;;5036521;28;19976;-29
2022/07/12 03:35:19;;;;;;;;;;;;;;;;;;5035466;28;20085;-30
2022/07/12 03:37:45;;;;;;;;;;;;;;;;;;5035291;28;19913;-30
2022/07/12 03:40:11;;;;;;;;;;;;;;;;;;5036017;28;20328;-30
2022/07/12 03:42:37;;;;;;;;;;;;;;;;;;5034635;28;19963;-30
2022/07/12 03:45:04;;;;;;;;;;;;;;;;;;5036397;28;20328;-30
2022/07/12 03:47:31;;;;;;;;;;;;;;;;;;5036078;28;20082;-30
2022/07/12 03:49:57;;;;;;;;;;;;;;;;;;5036071;28;19916;-30
2022/07/12 03:52:23;;;;;;;;;;;;;;;;;;5036004;28;20253;-30
2022/07/12 03:54:49;;;;;;;;;;;;;;;;;;5035986;28;20264;-30
2022/07/12 03:57:15;;;;;;;;;;;;;;;;;;5034941;28;19913;-30
2022/07/12 03:59:41;;;;;;;;;;;;;;;;;;5035859;28;19913;-30
2022/07/12 04:02:07;;;;;;;;;;;;;;;;;;5035505;28;20359;-30
2022/07/12 04:04:33;;;;;;;;;;;;;;;;;;5035487;28;19928;-29
2022/07/12 04:06:59;;;;;;;;;;;;;;;;;;5034579;28;20375;-29
2022/07/12 04:09:25;;;;;;;;;;;;;;;;;;5034613;28;19940;-29
2022/07/12 04:11:51;;;;;;;;;;;;;;;;;;5035418;28;20018;-29
2022/07/12 04:14:17;;;;;;;;;;;;;;;;;;5034463;28;19975;-29
2022/07/12 04:16:44;;;;;;;;;;;;;;;;;;5035456;28;19909;-29
2022/07/12 04:19:10;;;;;;;;;;;;;;;;;;5035464;28;20267;-29
2022/07/12 04:21:36;;;;;;;;;;;;;;;;;;5035671;28;19919;-29
2022/07/12 04:24:02;;;;;;;;;;;;;;;;;;5036000;28;19920;-29
2022/07/12 04:26:28;;;;;;;;;;;;;;;;;;5035314;28;20336;-29
2022/07/12 04:28:54;;;;;;;;;;;;;;;;;;5035506;28;20252;-29
2022/07/12 04:31:20;;;;;;;;;;;;;;;;;;5034184;28;19944;-29
2022/07/12 04:33:46;;;;;;;;;;;;;;;;;;5035010;28;19913;-28
2022/07/12 04:36:12;;;;;;;;;;;;;;;;;;5035055;28;20264;-29
2022/07/12 04:38:38;;;;;;;;;;;;;;;;;;5035134;28;19994;-30
2022/07/12 04:41:03;;;;;;;;;;;;;;;;;;5035301;28;19913;-30
2022/07/12 04:43:30;;;;;;;;;;;;;;;;;;5034872;28;20264;-29
2022/07/12 04:45:56;;;;;;;;;;;;;;;;;;5035224;28;20336;-29
2022/07/12 04:48:21;;;;;;;;;;;;;;;;;;5034935;28;19919;-29
2022/07/12 04:50:47;;;;;;;;;;;;;;;;;;5034975;28;20265;-29
2022/07/12 04:53:13;;;;;;;;;;;;;;;;;;5034566;28;19914;-30
2022/07/12 04:55:39;;;;;;;;;;;;;;;;;;5034816;28;19925;-30
2022/07/12 04:58:05;;;;;;;;;;;;;;;;;;5034867;28;19917;-30
2022/07/12 05:00:31;;;;;;;;;;;;;;;;;;5034920;28;19966;-29
2022/07/12 05:02:57;;;;;;;;;;;;;;;;;;5034493;28;19956;-29
2022/07/12 05:05:23;;;;;;;;;;;;;;;;;;5035014;28;20000;-35
2022/07/12 05:07:49;;;;;;;;;;;;;;;;;;5034881;28;19920;-29
2022/07/12 05:10:15;;;;;;;;;;;;;;;;;;5035059;28;20316;-29
2022/07/12 05:12:41;;;;;;;;;;;;;;;;;;5034584;28;20260;-29
2022/07/12 05:15:07;;;;;;;;;;;;;;;;;;5034784;28;19905;-30
2022/07/12 05:17:33;;;;;;;;;;;;;;;;;;5034641;28;19925;-30
2022/07/12 05:19:59;;;;;;;;;;;;;;;;;;5034940;28;19913;-29
2022/07/12 05:22:25;;;;;;;;;;;;;;;;;;5034872;28;19917;-29
2022/07/12 05:24:51;;;;;;;;;;;;;;;;;;5034617;28;20008;-29
2022/07/12 05:27:17;;;;;;;;;;;;;;;;;;5034959;28;19948;-30
2022/07/12 05:29:43;;;;;;;;;;;;;;;;;;5033627;28;19913;-29
2022/07/12 05:32:09;;;;;;;;;;;;;;;;;;5034888;28;19917;-29
2022/07/12 05:34:35;;;;;;;;;;;;;;;;;;5034569;28;19913;-29
2022/07/12 05:37:01;;;;;;;;;;;;;;;;;;5034780;28;20008;-29
2022/07/12 05:39:27;;;;;;;;;;;;;;;;;;5034407;28;19913;-29
2022/07/12 05:41:53;;;;;;;;;;;;;;;;;;5034275;28;20027;-32
2022/07/12 05:44:19;;;;;;;;;;;;;;;;;;5034681;28;19913;-30
2022/07/12 05:46:45;;;;;;;;;;;;;;;;;;5034410;28;20356;-29
2022/07/12 05:49:11;;;;;;;;;;;;;;;;;;5034639;28;19917;-29
2022/07/12 05:54:22;;;;;;;;;;;;;;;;;;5034674;28;20359;-30
2022/07/12 05:56:48;;;;;;;;;;;;;;;;;;5034346;28;19909;-30
2022/07/12 05:59:14;;;;;;;;;;;;;;;;;;5034603;28;19909;-30
2022/07/12 06:01:40;;;;;;;;;;;;;;;;;;5034214;28;19924;-29
2022/07/12 06:04:07;;;;;;;;;;;;;;;;;;5034838;28;20299;-29
2022/07/12 06:06:33;;;;;;;;;;;;;;;;;;5038096;28;19925;-29
2022/07/12 06:08:59;;;;;;;;;;;;;;;;;;5037777;28;20336;-29
2022/07/12 06:11:26;;;;;;;;;;;;;;;;;;5037837;28;19918;-30
2022/07/12 06:13:52;;;;;;;;;;;;;;;;;;5037842;28;19917;-29
2022/07/12 06:16:18;;;;;;;;;;;;;;;;;;5036817;28;19913;-29
2022/07/12 06:18:44;;;;;;;;;;;;;;;;;;5036793;28;19909;-29
2022/07/12 06:21:10;;;;;;;;;;;;;;;;;;5037788;28;19913;-29
2022/07/12 06:23:36;;;;;;;;;;;;;;;;;;5037447;28;20267;-29
2022/07/12 06:26:02;;;;;;;;;;;;;;;;;;5037693;28;19917;-29
2022/07/12 06:28:28;;;;;;;;;;;;;;;;;;5037865;28;20383;-29
2022/07/12 06:30:54;;;;;;;;;;;;;;;;;;5036606;28;19914;-29
2022/07/12 06:33:20;;;;;;;;;;;;;;;;;;5036705;28;19916;-29
2022/07/12 06:35:46;;;;;;;;;;;;;;;;;;5037787;28;20249;-35
2022/07/12 06:38:12;;;;;;;;;;;;;;;;;;5036265;28;19924;-29
2022/07/12 06:40:38;;;;;;;;;;;;;;;;;;5037121;28;20026;-28
2022/07/12 06:43:04;;;;;;;;;;;;;;;;;;5036942;28;19945;-28
2022/07/12 06:45:30;;;;;;;;;;;;;;;;;;5037142;28;20015;-29
2022/07/12 06:47:56;;;;;;;;;;;;;;;;;;5036883;28;20350;-28
2022/07/12 06:50:22;;;;;;;;;;;;;;;;;;5036024;28;19965;-29
2022/07/12 06:52:48;;;;;;;;;;;;;;;;;;5037047;28;19909;-28
2022/07/12 06:55:14;;;;;;;;;;;;;;;;;;5036968;28;19913;-29
2022/07/12 06:57:40;;;;;;;;;;;;;;;;;;5036871;28;19920;-29
2022/07/12 07:00:07;;;;;;;;;;;;;;;;;;5036824;28;20362;-29
2022/07/12 07:02:33;;;;;;;;;;;;;;;;;;5038514;28;19967;-29
2022/07/12 07:04:59;;;;;;;;;;;;;;;;;;5038640;28;19960;-29
2022/07/12 07:07:25;;;;;;;;;;;;;;;;;;5035372;28;19963;-29
2022/07/12 07:09:51;;;;;;;;;;;;;;;;;;5036612;28;19925;-29
2022/07/12 07:12:17;;;;;;;;;;;;;;;;;;5036812;28;20004;-29
2022/07/12 07:14:43;;;;;;;;;;;;;;;;;;5035330;28;20289;-29
2022/07/12 07:17:09;;;;;;;;;;;;;;;;;;5036810;28;19913;-29
2022/07/12 07:19:35;;;;;;;;;;;;;;;;;;5036423;28;19924;-29
2022/07/12 07:22:01;;;;;;;;;;;;;;;;;;5036298;28;19917;-29
2022/07/12 07:24:27;;;;;;;;;;;;;;;;;;5036326;28;19917;-28
2022/07/12 07:26:53;;;;;;;;;;;;;;;;;;5036632;28;19909;-29
2022/07/12 07:32:04;;;;;;;;;;;;;;;;;;5036100;28;19920;-29
2022/07/12 07:34:30;;;;;;;;;;;;;;;;;;5036125;28;19909;-29
2022/07/12 07:36:56;;;;;;;;;;;;;;;;;;5035994;28;19909;-29
2022/07/12 07:39:22;;;;;;;;;;;;;;;;;;5036024;28;20391;-29
2022/07/12 07:41:48;;;;;;;;;;;;;;;;;;5035779;28;19918;-29
2022/07/12 07:44:14;;;;;;;;;;;;;;;;;;5034919;28;19920;-28
2022/07/12 07:46:40;;;;;;;;;;;;;;;;;;5035815;28;19974;-29
2022/07/12 07:49:06;;;;;;;;;;;;;;;;;;5035805;28;20010;-29
2022/07/12 07:51:32;;;;;;;;;;;;;;;;;;5035625;28;19916;-28
2022/07/12 07:53:59;;;;;;;;;;;;;;;;;;5035697;28;19923;-28
2022/07/12 07:56:25;;;;;;;;;;;;;;;;;;5034870;28;19909;-29
2022/07/12 07:58:52;;;;;;;;;;;;;;;;;;5034748;28;19917;-29
2022/07/12 08:01:18;;;;;;;;;;;;;;;;;;5035571;28;20240;-29
2022/07/12 08:03:44;;;;;;;;;;;;;;;;;;5034289;28;19921;-29
2022/07/12 08:06:10;;;;;;;;;;;;;;;;;;5036067;28;19913;-29
2022/07/12 08:08:36;;;;;;;;;;;;;;;;;;5035347;28;19909;-29
2022/07/12 08:11:03;;;;;;;;;;;;;;;;;;5035622;28;20000;-28
2022/07/12 08:13:29;;;;;;;;;;;;;;;;;;5035382;28;19935;-29
2022/07/12 08:15:55;;;;;;;;;;;;;;;;;;5035379;28;19910;-29
2022/07/12 08:18:21;;;;;;;;;;;;;;;;;;5035333;28;20007;-29
2022/07/12 08:20:47;;;;;;;;;;;;;;;;;;5035562;28;19979;-29
2022/07/12 08:23:13;;;;;;;;;;;;;;;;;;5035165;28;20355;-29
2022/07/12 08:25:39;;;;;;;;;;;;;;;;;;5035280;28;19917;-29
2022/07/12 08:28:05;;;;;;;;;;;;;;;;;;5035009;28;20232;-29
2022/07/12 08:30:31;;;;;;;;;;;;;;;;;;5035248;28;20339;-28
2022/07/12 08:32:57;;;;;;;;;;;;;;;;;;5035252;28;19910;-29
2022/07/12 08:35:23;;;;;;;;;;;;;;;;;;5035042;28;19975;-31
2022/07/12 08:37:49;;;;;;;;;;;;;;;;;;5035004;28;19963;-29
2022/07/12 08:40:15;;;;;;;;;;;;;;;;;;5034096;28;19913;-30
2022/07/12 08:42:41;;;;;;;;;;;;;;;;;;5034939;28;19928;-29
2022/07/12 08:45:07;;;;;;;;;;;;;;;;;;5035317;28;19909;-29
2022/07/12 08:47:37;;;;;;;;;;;;;;;;;;5035072;28;19913;-29
2022/07/12 08:50:03;;;;;;;;;;;;;;;;;;5035047;28;19916;-29
2022/07/12 08:52:29;;;;;;;;;;;;;;;;;;5034002;28;19966;-29
2022/07/12 08:54:55;;;;;;;;;;;;;;;;;;5035012;28;20340;-29
2022/07/12 08:57:21;;;;;;;;;;;;;;;;;;5034827;28;19917;-28
2022/07/12 08:59:47;;;;;;;;;;;;;;;;;;5034914;28;19913;-29
2022/07/12 09:02:13;;;;;;;;;;;;;;;;;;5033774;28;19927;-29
2022/07/12 09:04:40;;;;;;;;;;;;;;;;;;5033925;28;20008;-29
2022/07/12 09:07:05;;;;;;;;;;;;;;;;;;5034866;28;19963;-29
2022/07/12 09:09:32;;;;;;;;;;;;;;;;;;5035091;28;19909;-31
2022/07/12 09:11:58;;;;;;;;;;;;;;;;;;5034773;28;20225;-29
2022/07/12 09:14:24;;;;;;;;;;;;;;;;;;5035096;28;19971;-29
2022/07/12 09:16:50;;;;;;;;;;;;;;;;;;5034740;28;19996;-29
2022/07/12 09:19:19;;;;;;;;;;;;;;;;;;5033603;28;19924;-29
2022/07/12 09:21:45;;;;;;;;;;;;;;;;;;5034747;28;19924;-29
2022/07/12 09:24:11;;;;;;;;;;;;;;;;;;5034563;28;19917;-28
2022/07/12 09:26:37;;;;;;;;;;;;;;;;;;5033628;28;19913;-29
2022/07/12 09:29:03;;;;;;;;;;;;;;;;;;5034675;28;19924;-29
2022/07/12 09:31:30;;;;;;;;;;;;;;;;;;5034433;28;19910;-29
2022/07/12 09:36:40;;;;;;;;;;;;;;;;;;5034529;28;20002;-29
2022/07/12 09:39:06;;;;;;;;;;;;;;;;;;5036657;28;19920;-30
2022/07/12 09:41:32;;;;;;;;;;;;;;;;;;5038100;28;19915;-29
2022/07/12 09:43:58;;;;;;;;;;;;;;;;;;5037979;28;19909;-29
2022/07/12 09:46:24;;;;;;;;;;;;;;;;;;5036781;28;20370;-29
2022/07/12 09:48:50;;;;;;;;;;;;;;;;;;5038000;28;20005;-29
2022/07/12 09:51:17;;;;;;;;;;;;;;;;;;5037861;28;19913;-29
2022/07/12 09:53:43;;;;;;;;;;;;;;;;;;5038313;28;19955;-29
2022/07/12 09:56:09;;;;;;;;;;;;;;;;;;5037666;28;19979;-29
2022/07/12 09:58:35;;;;;;;;;;;;;;;;;;5036711;28;19909;-29
2022/07/12 10:01:01;;;;;;;;;;;;;;;;;;5036621;28;19916;-28
2022/07/12 10:03:27;;;;;;;;;;;;;;;;;;5036305;28;19921;-29
2022/07/12 10:05:53;;;;;;;;;;;;;;;;;;5037567;28;19929;-29
2022/07/12 10:08:20;;;;;;;;;;;;;;;;;;5037694;28;19905;-30
2022/07/12 10:10:46;;;;;;;;;;;;;;;;;;5036620;28;20264;-30
2022/07/12 10:13:12;;;;;;;;;;;;;;;;;;5037639;28;19920;-29
2022/07/12 10:15:38;;;;;;;;;;;;;;;;;;5036629;28;19917;-29
2022/07/12 10:18:05;;;;;;;;;;;;;;;;;;5037692;28;19963;-30
2022/07/12 10:20:31;;;;;;;;;;;;;;;;;;5037629;28;19996;-30
2022/07/12 10:22:57;;;;;;;;;;;;;;;;;;5037326;28;19924;-29
2022/07/12 10:25:23;;;;;;;;;;;;;;;;;;5037390;28;19909;-29
2022/07/12 10:27:49;;;;;;;;;;;;;;;;;;5037698;28;20007;-29
2022/07/12 10:30:16;;;;;;;;;;;;;;;;;;5036624;28;19991;-30
2022/07/12 10:32:42;;;;;;;;;;;;;;;;;;5037345;28;19921;-29
2022/07/12 10:35:08;;;;;;;;;;;;;;;;;;5037486;28;19913;-29
2022/07/12 10:37:34;;;;;;;;;;;;;;;;;;5037400;28;19913;-30
2022/07/12 10:40:00;;;;;;;;;;;;;;;;;;5036451;28;19913;-29
2022/07/12 10:42:26;;;;;;;;;;;;;;;;;;5037191;28;20344;-29
2022/07/12 10:44:52;;;;;;;;;;;;;;;;;;5036954;28;19913;-29
2022/07/12 10:47:19;;;;;;;;;;;;;;;;;;5037383;28;20252;-29
2022/07/12 10:49:45;;;;;;;;;;;;;;;;;;5036683;28;20307;-30
2022/07/12 10:52:11;;;;;;;;;;;;;;;;;;5037084;28;19971;-30
2022/07/12 10:54:37;;;;;;;;;;;;;;;;;;5037275;28;20352;-30
2022/07/12 10:57:03;;;;;;;;;;;;;;;;;;5037265;28;19999;-30
2022/07/12 10:59:29;;;;;;;;;;;;;;;;;;5036003;28;19913;-30
2022/07/12 11:01:55;;;;;;;;;;;;;;;;;;5036854;28;19919;-30
2022/07/12 11:04:21;;;;;;;;;;;;;;;;;;5036725;28;19947;-30
2022/07/12 11:06:47;;;;;;;;;;;;;;;;;;5036905;28;19909;-30
2022/07/12 11:09:13;;;;;;;;;;;;;;;;;;5036796;28;19932;-30
2022/07/12 11:11:39;;;;;;;;;;;;;;;;;;5036843;28;19905;-29
2022/07/12 11:14:05;;;;;;;;;;;;;;;;;;5036638;28;20264;-30
2022/07/12 11:16:31;;;;;;;;;;;;;;;;;;5036727;28;20384;-30
2022/07/12 11:18:57;;;;;;;;;;;;;;;;;;5036586;28;19991;-30
2022/07/12 11:21:24;;;;;;;;;;;;;;;;;;5036529;28;20006;-30
2022/07/12 11:23:50;;;;;;;;;;;;;;;;;;5036335;28;19920;-30
2022/07/12 11:26:16;;;;;;;;;;;;;;;;;;5036661;28;19909;-29
2022/07/12 11:28:42;;;;;;;;;;;;;;;;;;5035108;28;20316;-30
2022/07/12 11:31:08;;;;;;;;;;;;;;;;;;5035992;28;19945;-31
2022/07/12 11:33:34;;;;;;;;;;;;;;;;;;5036061;28;20260;-30
2022/07/12 11:36:00;;;;;;;;;;;;;;;;;;5035865;28;19975;-29
2022/07/12 11:38:26;;;;;;;;;;;;;;;;;;5035853;28;19909;-30
2022/07/12 11:40:52;;;;;;;;;;;;;;;;;;5035769;28;19996;-30
2022/07/12 11:43:18;;;;;;;;;;;;;;;;;;5035631;28;20252;-30
2022/07/12 11:45:44;;;;;;;;;;;;;;;;;;5035763;28;19909;-30
2022/07/12 11:48:10;;;;;;;;;;;;;;;;;;5035702;28;19924;-29
2022/07/12 11:50:36;;;;;;;;;;;;;;;;;;5035539;28;19909;-30
2022/07/12 11:53:02;;;;;;;;;;;;;;;;;;5035798;28;19923;-30
2022/07/12 11:55:28;;;;;;;;;;;;;;;;;;5035885;28;20320;-30
2022/07/12 11:57:54;;;;;;;;;;;;;;;;;;5035719;28;19920;-30
2022/07/12 12:00:20;;;;;;;;;;;;;;;;;;5034619;28;20255;-30
2022/07/12 12:02:47;;;;;;;;;;;;;;;;;;5034627;28;19924;-30
2022/07/12 12:05:13;;;;;;;;;;;;;;;;;;5035222;28;19921;-30
2022/07/12 12:07:39;;;;;;;;;;;;;;;;;;5035318;28;19913;-30
2022/07/12 12:10:05;;;;;;;;;;;;;;;;;;5035227;28;19917;-30
2022/07/12 12:12:31;;;;;;;;;;;;;;;;;;5035116;28;19979;-27
2022/07/12 12:14:57;;;;;;;;;;;;;;;;;;5034966;28;20364;-29
2022/07/12 12:17:23;;;;;;;;;;;;;;;;;;5033901;28;20363;-29
2022/07/12 12:19:49;;;;;;;;;;;;;;;;;;5034003;28;19920;-29
2022/07/12 12:22:15;;;;;;;;;;;;;;;;;;5035194;28;20379;-27
2022/07/12 12:24:41;;;;;;;;;;;;;;;;;;5035501;28;19952;-28
2022/07/12 12:27:07;;;;;;;;;;;;;;;;;;5035099;28;19999;-28
2022/07/12 12:29:33;;;;;;;;;;;;;;;;;;5035313;28;19913;-28
2022/07/12 12:31:59;;;;;;;;;;;;;;;;;;5033929;28;19913;-28
2022/07/12 12:34:25;;;;;;;;;;;;;;;;;;5034988;28;19917;-29
2022/07/12 12:36:51;;;;;;;;;;;;;;;;;;5035154;28;19921;-28
2022/07/12 12:39:17;;;;;;;;;;;;;;;;;;5035233;28;19936;-28
2022/07/12 12:41:43;;;;;;;;;;;;;;;;;;5035172;28;20328;-29
2022/07/12 12:44:09;;;;;;;;;;;;;;;;;;5033870;28;20359;-27
2022/07/12 12:46:35;;;;;;;;;;;;;;;;;;5033870;28;19909;-28
2022/07/12 12:49:01;;;;;;;;;;;;;;;;;;5033762;28;19917;-28
2022/07/12 12:51:27;;;;;;;;;;;;;;;;;;5034635;28;20209;-28
2022/07/12 12:53:53;;;;;;;;;;;;;;;;;;5034445;28;19924;-28
2022/07/12 12:56:19;;;;;;;;;;;;;;;;;;5033414;28;20328;-29
2022/07/12 12:58:45;;;;;;;;;;;;;;;;;;5034446;28;19909;-29
2022/07/12 13:01:11;;;;;;;;;;;;;;;;;;5034536;28;19921;-29
2022/07/12 13:03:37;;;;;;;;;;;;;;;;;;5034278;28;20233;-29
2022/07/12 13:06:04;;;;;;;;;;;;;;;;;;5034664;28;19996;-29
2022/07/12 13:08:30;;;;;;;;;;;;;;;;;;5034585;28;19923;-29
2022/07/12 13:13:41;;;;;;;;;;;;;;;;;;5036312;28;20479;-29
2022/07/12 13:16:07;;;;;;;;;;;;;;;;;;5037659;28;19992;-29
2022/07/12 13:18:33;;;;;;;;;;;;;;;;;;5039094;28;20356;-29
2022/07/12 13:20:59;;;;;;;;;;;;;;;;;;5038783;28;19932;-30
2022/07/12 13:23:25;;;;;;;;;;;;;;;;;;5037611;28;19960;-31
2022/07/12 13:25:51;;;;;;;;;;;;;;;;;;5038600;28;19920;-29
2022/07/12 13:28:17;;;;;;;;;;;;;;;;;;5038619;28;19917;-30
2022/07/12 13:30:43;;;;;;;;;;;;;;;;;;5038590;28;19995;-30
2022/07/12 13:33:09;;;;;;;;;;;;;;;;;;5038412;28;20301;-29
2022/07/12 13:35:36;;;;;;;;;;;;;;;;;;5038411;28;19913;-30
2022/07/12 13:38:03;;;;;;;;;;;;;;;;;;5038352;28;19917;-30
2022/07/12 13:40:32;;;;;;;;;;;;;;;;;;5037317;28;20276;-30
2022/07/12 13:42:58;;;;;;;;;;;;;;;;;;5038443;28;19917;-30
2022/07/12 13:45:24;;;;;;;;;;;;;;;;;;5038231;28;19909;-30
2022/07/12 13:47:50;;;;;;;;;;;;;;;;;;5038410;28;19913;-30
2022/07/12 13:50:16;;;;;;;;;;;;;;;;;;5038397;28;20351;-29
2022/07/12 13:52:42;;;;;;;;;;;;;;;;;;5037971;28;19975;-30
2022/07/12 13:55:08;;;;;;;;;;;;;;;;;;5037953;28;19916;-30
2022/07/12 13:57:35;;;;;;;;;;;;;;;;;;5037107;28;19913;-30
2022/07/12 14:00:01;;;;;;;;;;;;;;;;;;5038275;28;20359;-29
2022/07/12 14:02:27;;;;;;;;;;;;;;;;;;5037782;28;19921;-29
2022/07/12 14:04:53;;;;;;;;;;;;;;;;;;5036685;28;20356;-29
2022/07/12 14:07:19;;;;;;;;;;;;;;;;;;5036948;28;19920;-31
2022/07/12 14:09:45;;;;;;;;;;;;;;;;;;5036788;28;19913;-30
2022/07/12 14:12:11;;;;;;;;;;;;;;;;;;5037653;28;19967;-30
2022/07/12 14:17:24;;;;;;;;;;;;;;;;;;5037728;28;20063;-30
2022/07/12 14:19:50;;;;;;;;;;;;;;;;;;5036522;28;19920;-30
2022/07/12 14:22:16;;;;;;;;;;;;;;;;;;5037291;28;19985;-30
2022/07/12 14:24:42;;;;;;;;;;;;;;;;;;5036709;28;19909;-30
2022/07/12 14:27:08;;;;;;;;;;;;;;;;;;5037636;28;19913;-30
2022/07/12 14:29:34;;;;;;;;;;;;;;;;;;5036435;28;19909;-30
2022/07/12 14:32:01;;;;;;;;;;;;;;;;;;5037331;28;20003;-30
2022/07/12 14:34:27;;;;;;;;;;;;;;;;;;5037554;28;19913;-29
2022/07/12 14:36:53;;;;;;;;;;;;;;;;;;5037259;28;20015;-30
2022/07/12 14:39:19;;;;;;;;;;;;;;;;;;5037435;28;19913;-29
2022/07/12 14:41:45;;;;;;;;;;;;;;;;;;5037006;28;19940;-29
2022/07/12 14:44:11;;;;;;;;;;;;;;;;;;5037207;28;20012;-28
2022/07/12 14:46:37;;;;;;;;;;;;;;;;;;5036053;28;19960;-28
2022/07/12 14:49:03;;;;;;;;;;;;;;;;;;5036055;28;19913;-28
2022/07/12 14:51:29;;;;;;;;;;;;;;;;;;5037039;28;20225;-29
2022/07/12 14:53:55;;;;;;;;;;;;;;;;;;5035859;28;19913;-28
2022/07/12 14:56:21;;;;;;;;;;;;;;;;;;5036877;28;19925;-28
2022/07/12 14:58:47;;;;;;;;;;;;;;;;;;5036707;28;19967;-28
2022/07/12 15:01:13;;;;;;;;;;;;;;;;;;5036795;28;20340;-28
2022/07/12 15:03:39;;;;;;;;;;;;;;;;;;5036557;28;19983;-28
2022/07/12 15:06:05;;;;;;;;;;;;;;;;;;5036717;28;19916;-28
2022/07/12 15:08:31;;;;;;;;;;;;;;;;;;5036852;28;19917;-28
2022/07/12 15:10:57;;;;;;;;;;;;;;;;;;5036689;28;19905;-29
2022/07/12 15:13:23;;;;;;;;;;;;;;;;;;5036749;28;19913;-28
2022/07/12 15:15:49;;;;;;;;;;;;;;;;;;5036452;28;20217;-28
2022/07/12 15:18:16;;;;;;;;;;;;;;;;;;5036478;28;20078;-28
2022/07/12 15:20:42;;;;;;;;;;;;;;;;;;5036745;28;20214;-28
2022/07/12 15:23:08;;;;;;;;;;;;;;;;;;5036547;28;20324;-28
2022/07/12 15:25:34;;;;;;;;;;;;;;;;;;5036428;28;19909;-28
2022/07/12 15:28:00;;;;;;;;;;;;;;;;;;5036268;28;19995;-28
2022/07/12 15:30:26;;;;;;;;;;;;;;;;;;5036651;28;19959;-28
2022/07/12 15:32:54;;;;;;;;;;;;;;;;;;5036140;28;20004;-28
2022/07/12 15:35:20;;;;;;;;;;;;;;;;;;5036303;28;19909;-28
2022/07/12 15:37:46;;;;;;;;;;;;;;;;;;5036105;28;19919;-28
2022/07/12 15:40:12;;;;;;;;;;;;;;;;;;5036322;28;20339;-28
2022/07/12 15:42:38;;;;;;;;;;;;;;;;;;5035994;28;19924;-28
2022/07/12 15:45:04;;;;;;;;;;;;;;;;;;5036034;28;20255;-27
2022/07/12 15:47:30;;;;;;;;;;;;;;;;;;5035959;28;19920;-28
2022/07/12 15:49:56;;;;;;;;;;;;;;;;;;5035964;28;19913;-28
2022/07/12 15:55:09;;;;;;;;;;;;;;;;;;5036183;28;19940;-28
2022/07/12 15:57:35;;;;;;;;;;;;;;;;;;5034825;28;19984;-29
2022/07/12 16:00:01;;;;;;;;;;;;;;;;;;5035698;28;20252;-28
2022/07/12 16:02:27;;;;;;;;;;;;;;;;;;5034467;28;20241;-28
2022/07/12 16:04:53;;;;;;;;;;;;;;;;;;5035557;28;20008;-28
2022/07/12 16:07:19;;;;;;;;;;;;;;;;;;5035955;28;19913;-28
2022/07/12 16:09:45;;;;;;;;;;;;;;;;;;5035648;28;19909;-28
2022/07/12 16:12:11;;;;;;;;;;;;;;;;;;5035432;28;19913;-28
2022/07/12 16:14:37;;;;;;;;;;;;;;;;;;5036209;28;19909;-29
2022/07/12 16:17:03;;;;;;;;;;;;;;;;;;5034426;28;19959;-29
2022/07/12 16:19:31;;;;;;;;;;;;;;;;;;5034465;28;20252;-28
2022/07/12 16:21:57;;;;;;;;;;;;;;;;;;5034132;28;19977;-28
2022/07/12 16:24:23;;;;;;;;;;;;;;;;;;5035595;28;19913;-29
2022/07/12 16:26:49;;;;;;;;;;;;;;;;;;5035535;28;19964;-29
2022/07/12 16:29:15;;;;;;;;;;;;;;;;;;5035149;28;19913;-28
2022/07/12 16:31:41;;;;;;;;;;;;;;;;;;5035426;28;19924;-28
2022/07/12 16:34:07;;;;;;;;;;;;;;;;;;5035044;28;19913;-28
2022/07/12 16:36:33;;;;;;;;;;;;;;;;;;5035439;28;19911;-29
2022/07/12 16:38:59;;;;;;;;;;;;;;;;;;5035442;28;19917;-29
2022/07/12 16:41:25;;;;;;;;;;;;;;;;;;5035158;28;19910;-28
2022/07/12 16:43:51;;;;;;;;;;;;;;;;;;5034998;28;19928;-35
2022/07/12 16:46:17;;;;;;;;;;;;;;;;;;5035372;28;19913;-28
2022/07/12 16:48:43;;;;;;;;;;;;;;;;;;5034598;28;20448;-29
2022/07/12 16:51:22;;;;;;;;;;;;;;;;;;5035325;28;19913;-28
2022/07/12 16:53:52;;;;;;;;;;;;;;;;;;5034651;28;19913;-28